Time;durP1;ratioP1;P1;durP2;ratioP2;P2;SDS_P1;SDS_P2;PMS_P1;PMS_P2;Temp;Humidity;BMP_temperature;BMP_pressure;BME280_temperature;BME280_humidity;BME280_pressure;Samples;Min_cycle;Max_cycle;Signal;HPM_P1;HPM_P2
2023/07/27 00:01:06;;;;;;;2.75;2.05;;;13.00;99.90;;;;;;5012962;28;20298;-90
2023/07/27 00:03:31;;;;;;;5.78;2.30;;;13.00;99.90;;;;;;5011551;28;20174;-90
2023/07/27 00:05:57;;;;;;;6.82;2.20;;;13.00;99.90;;;;;;5011635;28;20683;-90
2023/07/27 00:08:23;;;;;;;5.63;2.35;;;13.00;99.90;;;;;;5017383;28;20194;-91
2023/07/27 00:10:48;;;;;;;5.70;2.40;;;12.90;99.90;;;;;;5031044;28;20181;-90
2023/07/27 00:13:16;;;;;;;4.50;1.98;;;13.00;99.90;;;;;;5032412;28;20237;-89
2023/07/27 00:15:42;;;;;;;4.63;2.10;;;12.90;99.90;;;;;;5031142;28;20269;-91
2023/07/27 00:18:07;;;;;;;4.63;1.95;;;12.90;99.90;;;;;;5031189;28;20175;-89
2023/07/27 00:20:33;;;;;;;6.82;2.28;;;12.90;99.90;;;;;;5031257;28;20177;-92
2023/07/27 00:22:59;;;;;;;2.92;2.17;;;12.90;99.90;;;;;;5030471;28;20484;-90
2023/07/27 00:25:25;;;;;;;3.70;2.17;;;12.90;99.90;;;;;;5030954;28;20209;-91
2023/07/27 00:27:50;;;;;;;3.28;2.17;;;12.90;99.90;;;;;;5030869;28;20179;-90
2023/07/27 00:30:16;;;;;;;4.40;2.10;;;12.90;99.90;;;;;;5031010;28;20702;-90
2023/07/27 00:32:42;;;;;;;3.38;2.28;;;12.80;99.90;;;;;;5031293;28;20211;-93
2023/07/27 00:35:08;;;;;;;7.78;2.10;;;12.80;99.90;;;;;;5031614;28;20772;-92
2023/07/27 00:37:33;;;;;;;5.07;2.40;;;12.80;99.90;;;;;;5030627;28;20638;-92
2023/07/27 00:39:59;;;;;;;3.38;2.05;;;12.80;99.90;;;;;;5012388;28;20241;-90
2023/07/27 00:42:25;;;;;;;4.50;2.28;;;12.80;99.90;;;;;;5011517;28;20217;-91
2023/07/27 00:44:51;;;;;;;4.15;2.17;;;12.80;99.90;;;;;;5011044;28;20203;-91
2023/07/27 00:47:17;;;;;;;3.20;2.20;;;12.80;99.90;;;;;;5010875;28;20750;-90
2023/07/27 00:49:44;;;;;;;3.08;1.90;;;12.70;99.90;;;;;;5011351;28;20175;-90
2023/07/27 00:52:09;;;;;;;5.25;2.53;;;12.70;99.90;;;;;;5011037;28;20171;-90
2023/07/27 00:54:35;;;;;;;3.63;2.30;;;12.60;99.90;;;;;;5010977;28;20222;-91
2023/07/27 00:57:01;;;;;;;3.85;2.30;;;12.60;99.90;;;;;;5012232;28;20638;-92
2023/07/27 00:59:28;;;;;;;4.80;2.35;;;12.50;99.90;;;;;;5010855;28;20178;-92
2023/07/27 01:01:54;;;;;;;5.30;2.08;;;12.50;99.90;;;;;;5010750;28;20547;-92
2023/07/27 01:04:22;;;;;;;6.75;2.42;;;12.50;99.90;;;;;;5010877;28;20268;-91
2023/07/27 01:06:48;;;;;;;5.85;2.60;;;12.40;99.90;;;;;;5011007;28;20175;-92
2023/07/27 01:09:13;;;;;;;3.30;2.15;;;12.40;99.90;;;;;;5010456;28;20233;-91
2023/07/27 01:12:07;;;;;;;6.65;2.30;;;12.40;99.90;;;;;;5010515;28;20202;-91
2023/07/27 01:14:50;;;;;;;5.20;2.40;;;12.30;99.90;;;;;;5010530;28;20226;-92
2023/07/27 01:17:44;;;;;;;4.63;2.55;;;12.40;99.90;;;;;;5010884;28;20187;-91
2023/07/27 01:20:21;;;;;;;6.00;2.22;;;12.30;99.90;;;;;;5010997;28;20977;-89
2023/07/27 01:23:23;;;;;;;4.28;2.30;;;12.30;99.90;;;;;;5010812;28;20254;-91
2023/07/27 01:26:07;;;;;;;6.93;2.47;;;12.30;99.90;;;;;;5009987;28;20221;-90
2023/07/27 01:28:52;;;;;;;4.93;2.47;;;12.30;99.90;;;;;;5010773;28;20171;-90
2023/07/27 01:31:23;;;;;;;6.68;2.63;;;12.30;99.90;;;;;;5011050;28;20171;-93
2023/07/27 01:34:03;;;;;;;4.28;2.40;;;12.30;99.90;;;;;;5011676;28;20179;-91
2023/07/27 01:36:34;;;;;;;5.72;2.50;;;12.30;99.90;;;;;;5016887;28;20199;-90
2023/07/27 01:39:03;;;;;;;3.42;2.35;;;12.30;99.90;;;;;;5036979;28;20273;-89
2023/07/27 01:41:31;;;;;;;3.88;2.78;;;12.30;99.90;;;;;;5037371;28;20170;-91
2023/07/27 01:43:59;;;;;;;4.97;2.65;;;12.20;99.90;;;;;;5037085;28;20661;-92
2023/07/27 01:46:26;;;;;;;2.60;2.35;;;12.20;99.90;;;;;;5037527;28;20209;-90
2023/07/27 01:48:54;;;;;;;6.03;2.88;;;12.20;99.90;;;;;;5037576;28;20224;-90
2023/07/27 01:51:20;;;;;;;3.67;2.60;;;12.20;99.90;;;;;;5037164;28;20540;-91
2023/07/27 01:53:47;;;;;;;5.57;2.95;;;12.20;99.90;;;;;;5037191;28;20261;-90
2023/07/27 01:56:14;;;;;;;3.50;2.70;;;12.10;99.90;;;;;;5037275;28;20201;-90
2023/07/27 01:58:41;;;;;;;5.13;2.90;;;12.20;99.90;;;;;;5036742;28;20257;-92
2023/07/27 02:01:07;;;;;;;5.93;2.92;;;12.10;99.90;;;;;;5036684;28;20162;-90
2023/07/27 02:03:33;;;;;;;4.63;3.17;;;12.10;99.90;;;;;;5055004;28;20269;-89
2023/07/27 02:06:00;;;;;;;4.78;2.80;;;12.10;99.90;;;;;;5036768;28;20259;-89
2023/07/27 02:08:29;;;;;;;5.82;2.78;;;12.10;99.90;;;;;;5054804;28;20242;-91
2023/07/27 02:11:05;;;;;;;5.45;2.75;;;12.20;99.90;;;;;;5037047;28;20653;-91
2023/07/27 02:13:41;;;;;;;5.93;2.80;;;12.20;99.90;;;;;;5036771;28;20654;-89
2023/07/27 02:16:28;;;;;;;3.33;2.65;;;12.20;99.90;;;;;;5036758;28;20208;-90
2023/07/27 02:18:58;;;;;;;6.45;2.90;;;12.20;99.90;;;;;;5317217;23;20238;-88
2023/07/27 02:21:25;;;;;;;5.03;2.80;;;12.20;99.90;;;;;;5035759;28;20687;-87
2023/07/27 02:23:52;;;;;;;3.50;2.78;;;12.20;99.90;;;;;;5036410;28;20632;-87
2023/07/27 02:26:18;;;;;;;6.20;3.20;;;12.20;99.90;;;;;;5036788;28;20581;-88
2023/07/27 02:28:43;;;;;;;4.43;3.10;;;12.20;99.90;;;;;;5036515;28;20179;-88
2023/07/27 02:31:22;;;;;;;4.80;2.90;;;12.20;99.90;;;;;;5036382;28;20321;-87
2023/07/27 02:33:48;;;;;;;6.78;3.28;;;12.20;99.90;;;;;;5036098;28;20178;-88
2023/07/27 02:36:13;;;;;;;5.35;3.15;;;12.20;99.90;;;;;;5036190;28;20189;-88
2023/07/27 02:38:39;;;;;;;4.22;2.92;;;12.30;99.90;;;;;;5036331;28;20175;-88
2023/07/27 02:41:05;;;;;;;3.97;3.10;;;12.30;99.90;;;;;;5036191;28;20174;-88
2023/07/27 02:43:30;;;;;;;5.07;3.17;;;12.30;99.90;;;;;;5036122;28;20512;-88
2023/07/27 02:46:00;;;;;;;5.35;2.95;;;12.40;99.90;;;;;;5035876;28;20181;-89
2023/07/27 02:48:26;;;;;;;3.17;2.65;;;12.40;99.90;;;;;;5037674;28;20213;-88
2023/07/27 02:50:52;;;;;;;7.53;3.90;;;12.40;99.90;;;;;;5055976;28;20246;-88
2023/07/27 02:53:18;;;;;;;5.07;3.20;;;12.40;99.90;;;;;;5056905;28;20206;-86
2023/07/27 02:56:03;;;;;;;6.57;3.30;;;12.50;99.90;;;;;;5055863;28;20244;-88
2023/07/27 02:58:29;;;;;;;5.85;3.20;;;12.50;99.90;;;;;;5055877;28;20174;-88
2023/07/27 03:00:58;;;;;;;6.45;3.00;;;12.60;99.90;;;;;;5055560;28;20184;-89
2023/07/27 03:03:24;;;;;;;5.72;2.75;;;12.70;99.90;;;;;;5055284;28;20209;-87
2023/07/27 03:06:01;;;;;;;6.75;3.13;;;12.70;99.90;;;;;;5055732;28;20174;-87
2023/07/27 03:08:27;;;;;;;5.55;3.75;;;12.80;99.90;;;;;;5049553;28;20174;-90
2023/07/27 03:11:02;;;;;;;4.10;3.00;;;12.80;99.90;;;;;;5035570;28;20617;-89
2023/07/27 03:13:27;;;;;;;6.43;3.33;;;12.80;99.90;;;;;;5035639;28;20491;-88
2023/07/27 03:15:53;;;;;;;4.78;3.00;;;12.80;99.90;;;;;;5035478;28;20309;-87
2023/07/27 03:18:21;;;;;;;6.85;3.78;;;12.80;99.90;;;;;;5035181;28;20309;-89
2023/07/27 03:20:47;;;;;;;5.80;3.22;;;12.80;99.90;;;;;;5035505;28;20244;-88
2023/07/27 03:23:13;;;;;;;5.30;3.20;;;12.90;99.90;;;;;;5035742;28;20171;-90
2023/07/27 03:25:39;;;;;;;4.65;3.47;;;12.90;99.90;;;;;;5034896;28;20210;-88
2023/07/27 03:28:06;;;;;;;4.85;3.30;;;12.90;99.90;;;;;;5034836;28;20629;-87
2023/07/27 03:30:35;;;;;;;10.50;3.55;;;12.90;99.90;;;;;;5034970;28;20175;-87
2023/07/27 03:33:02;;;;;;;4.72;3.00;;;12.90;99.90;;;;;;5035014;28;20224;-89
2023/07/27 03:35:28;;;;;;;4.88;3.13;;;12.90;99.90;;;;;;5036064;28;20240;-88
2023/07/27 03:37:53;;;;;;;5.75;3.50;;;12.90;99.90;;;;;;5036144;28;20177;-88
2023/07/27 03:40:26;;;;;;;7.05;3.95;;;12.90;99.90;;;;;;5035113;28;20178;-88
2023/07/27 03:42:52;;;;;;;4.25;3.40;;;12.90;99.90;;;;;;5035016;28;20166;-89
2023/07/27 03:45:17;;;;;;;5.65;3.60;;;12.90;99.90;;;;;;5034822;28;20190;-88
2023/07/27 03:47:44;;;;;;;5.78;3.50;;;12.90;99.90;;;;;;5035163;28;20204;-89
2023/07/27 03:50:25;;;;;;;4.50;3.25;;;12.90;99.90;;;;;;5034758;28;20196;-88
2023/07/27 03:52:51;;;;;;;4.95;3.22;;;13.00;99.90;;;;;;5034860;28;20257;-89
2023/07/27 03:55:18;;;;;;;4.13;3.20;;;12.90;99.90;;;;;;5034788;28;20298;-89
2023/07/27 03:57:46;;;;;;;5.00;3.50;;;13.00;99.90;;;;;;5034039;28;20179;-88
2023/07/27 04:00:18;;;;;;;5.20;3.42;;;13.00;99.90;;;;;;5035618;28;20178;-88
2023/07/27 04:02:44;;;;;;;5.28;3.03;;;13.00;99.90;;;;;;5034715;28;20173;-88
2023/07/27 04:05:09;;;;;;;5.03;3.40;;;13.10;99.90;;;;;;5034327;28;20265;-89
2023/07/27 04:07:35;;;;;;;7.47;3.42;;;13.10;99.90;;;;;;5034488;28;20617;-89
2023/07/27 04:10:01;;;;;;;6.45;3.53;;;13.10;99.90;;;;;;5034296;28;20213;-89
2023/07/27 04:12:27;;;;;;;6.43;3.35;;;13.20;99.90;;;;;;5034603;28;20171;-89
2023/07/27 04:14:52;;;;;;;4.55;3.30;;;13.20;99.90;;;;;;5034512;28;20268;-89
2023/07/27 04:17:18;;;;;;;5.10;3.33;;;13.20;99.90;;;;;;5034598;28;20289;-88
2023/07/27 04:19:43;;;;;;;5.53;3.40;;;13.20;99.90;;;;;;5034016;28;20230;-89
2023/07/27 04:22:11;;;;;;;5.25;3.28;;;13.30;99.90;;;;;;5034506;28;20521;-89
2023/07/27 04:24:38;;;;;;;4.00;3.05;;;13.30;99.90;;;;;;5034609;28;20242;-88
2023/07/27 04:27:04;;;;;;;7.85;3.30;;;13.30;99.90;;;;;;5034678;28;20609;-87
2023/07/27 04:29:30;;;;;;;5.93;3.53;;;13.30;99.90;;;;;;5035531;28;20181;-89
2023/07/27 04:32:00;;;;;;;4.47;3.10;;;13.30;99.90;;;;;;5034419;28;20615;-88
2023/07/27 04:34:25;;;;;;;6.97;3.22;;;13.40;99.90;;;;;;5033867;28;20786;-88
2023/07/27 04:36:51;;;;;;;3.85;3.10;;;13.40;99.90;;;;;;5034027;28;20633;-88
2023/07/27 04:39:17;;;;;;;4.28;2.97;;;13.40;99.90;;;;;;5034024;28;20182;-90
2023/07/27 04:41:43;;;;;;;8.45;3.42;;;13.40;99.90;;;;;;5034600;28;20179;-91
2023/07/27 04:44:08;;;;;;;4.13;2.80;;;13.40;99.90;;;;;;5034151;28;20179;-89
2023/07/27 04:46:34;;;;;;;3.65;3.10;;;13.50;99.90;;;;;;5034135;28;20661;-88
2023/07/27 04:49:01;;;;;;;5.65;3.22;;;13.50;99.90;;;;;;5033752;28;20178;-88
2023/07/27 04:51:29;;;;;;;3.45;3.03;;;13.50;99.90;;;;;;5034058;28;20181;-89
2023/07/27 04:53:55;;;;;;;5.45;3.20;;;13.50;99.90;;;;;;5034795;28;20163;-88
2023/07/27 04:56:21;;;;;;;4.68;3.35;;;13.50;99.90;;;;;;5035265;28;20194;-88
2023/07/27 04:58:46;;;;;;;5.07;3.00;;;13.50;99.90;;;;;;5033859;28;20201;-89
2023/07/27 05:01:22;;;;;;;4.88;2.90;;;13.60;99.90;;;;;;5033976;28;20210;-91
2023/07/27 05:03:48;;;;;;;5.32;3.20;;;13.60;99.90;;;;;;5033796;28;20178;-88
2023/07/27 05:06:13;;;;;;;4.35;2.88;;;13.60;99.90;;;;;;5033900;28;20662;-89
2023/07/27 05:08:39;;;;;;;6.00;3.17;;;13.70;99.90;;;;;;5040980;28;20714;-90
2023/07/27 05:11:06;;;;;;;5.43;3.08;;;13.80;99.90;;;;;;5057803;28;20507;-89
2023/07/27 05:13:33;;;;;;;6.38;3.30;;;13.80;99.90;;;;;;5057633;28;20205;-89
2023/07/27 05:15:58;;;;;;;2.97;2.65;;;13.80;99.90;;;;;;5057733;28;20220;-89
2023/07/27 05:18:24;;;;;;;7.85;3.10;;;13.90;99.90;;;;;;5057380;28;20604;-90
2023/07/27 05:20:53;;;;;;;4.60;3.00;;;14.00;99.90;;;;;;5057454;28;20177;-89
2023/07/27 05:23:19;;;;;;;4.03;3.17;;;14.00;99.90;;;;;;5057678;28;20257;-89
2023/07/27 05:25:45;;;;;;;4.25;2.80;;;14.00;99.90;;;;;;5057702;28;20224;-88
2023/07/27 05:28:10;;;;;;;4.43;2.95;;;14.10;99.90;;;;;;5057582;28;20199;-89
2023/07/27 05:30:36;;;;;;;5.10;2.85;;;14.10;99.90;;;;;;5057335;28;20213;-93
2023/07/27 05:33:04;;;;;;;4.43;3.17;;;14.10;99.90;;;;;;5057576;28;20181;-89
2023/07/27 05:35:30;;;;;;;4.68;2.80;;;14.20;99.90;;;;;;5057200;28;20206;-89
2023/07/27 05:37:56;;;;;;;4.85;3.13;;;14.20;99.90;;;;;;5056373;28;20639;-90
2023/07/27 05:40:21;;;;;;;5.60;2.90;;;14.30;99.90;;;;;;5037185;28;20179;-91
2023/07/27 05:42:57;;;;;;;9.20;3.40;;;14.40;99.90;;;;;;5037339;28;20185;-89
2023/07/27 05:45:23;;;;;;;3.45;3.00;;;14.40;99.90;;;;;;5037326;28;20610;-93
2023/07/27 05:47:49;;;;;;;5.00;3.00;;;14.40;99.90;;;;;;5037646;28;20186;-88
2023/07/27 05:50:16;;;;;;;4.10;3.08;;;14.50;99.90;;;;;;5037619;28;20181;-93
2023/07/27 05:52:48;;;;;;;7.72;3.15;;;14.50;99.90;;;;;;5037113;28;20183;-92
2023/07/27 05:55:13;;;;;;;4.68;3.00;;;14.60;99.90;;;;;;5036771;28;20210;-91
2023/07/27 05:57:41;;;;;;;4.55;2.83;;;14.60;99.90;;;;;;5036970;28;20183;-90
2023/07/27 06:00:07;;;;;;;4.53;2.75;;;14.60;99.90;;;;;;5037005;28;20193;-89
2023/07/27 06:02:35;;;;;;;4.20;2.97;;;14.70;99.90;;;;;;5036617;28;20175;-90
2023/07/27 06:05:01;;;;;;;3.97;2.63;;;14.70;99.90;;;;;;5036886;28;20624;-89
2023/07/27 06:07:27;;;;;;;3.75;2.78;;;14.70;99.90;;;;;;5037340;28;20185;-90
2023/07/27 06:09:53;;;;;;;4.65;2.97;;;14.70;99.90;;;;;;5054820;28;20665;-90
2023/07/27 06:12:26;;;;;;;6.65;3.10;;;14.80;99.90;;;;;;5056803;28;20186;-90
2023/07/27 06:14:52;;;;;;;4.00;2.80;;;14.80;99.90;;;;;;5056626;28;20204;-90
2023/07/27 06:17:18;;;;;;;3.92;2.53;;;14.90;99.90;;;;;;5056705;28;20568;-90
2023/07/27 06:19:43;;;;;;;3.30;2.53;;;14.90;99.90;;;;;;5055908;28;20312;-89
2023/07/27 06:22:26;;;;;;;3.95;2.80;;;15.00;99.90;;;;;;5048172;28;20179;-91
2023/07/27 06:24:52;;;;;;;4.28;2.75;;;15.00;99.90;;;;;;5036711;28;20631;-90
2023/07/27 06:27:18;;;;;;;3.75;2.78;;;15.10;99.90;;;;;;5036564;28;20178;-94
2023/07/27 06:29:43;;;;;;;2.90;2.60;;;15.20;99.90;;;;;;5036605;28;20175;-93
2023/07/27 06:32:16;;;;;;;3.80;2.83;;;15.20;99.90;;;;;;5036571;28;20182;-94
2023/07/27 06:34:42;;;;;;;7.93;3.05;;;15.30;99.90;;;;;;5035938;28;20652;-91
2023/07/27 06:37:08;;;;;;;4.25;2.22;;;15.30;99.90;;;;;;5036433;28;20188;-92
2023/07/27 06:39:33;;;;;;;3.55;2.53;;;15.30;99.90;;;;;;5036705;28;20228;-92
2023/07/27 06:42:00;;;;;;;3.92;2.40;;;15.30;99.90;;;;;;5036182;28;20183;-91
2023/07/27 06:44:26;;;;;;;5.03;2.58;;;15.20;99.90;;;;;;5035623;28;20170;-92
2023/07/27 06:46:51;;;;;;;5.32;3.00;;;15.20;99.90;;;;;;5035660;28;20564;-93
2023/07/27 06:49:17;;;;;;;6.88;2.67;;;15.30;99.90;;;;;;5035886;28;20629;-92
2023/07/27 06:51:57;;;;;;;4.68;2.60;;;15.20;99.90;;;;;;5036199;28;20621;-90
2023/07/27 06:54:23;;;;;;;4.20;2.63;;;15.20;99.90;;;;;;5036040;28;20198;-92
2023/07/27 06:56:48;;;;;;;3.35;2.55;;;15.20;99.90;;;;;;5036152;28;20516;-92
2023/07/27 06:59:14;;;;;;;5.13;2.97;;;15.20;99.90;;;;;;5035827;28;20244;-92
2023/07/27 07:01:39;;;;;;;4.25;2.70;;;15.30;99.90;;;;;;5035961;28;20178;-92
2023/07/27 07:04:05;;;;;;;4.43;2.88;;;15.40;99.90;;;;;;5035495;28;20667;-91
2023/07/27 07:06:31;;;;;;;3.60;2.50;;;15.50;99.90;;;;;;5035714;28;20277;-92
2023/07/27 07:08:57;;;;;;;6.45;2.90;;;15.60;99.90;;;;;;5035257;28;20272;-90
2023/07/27 07:11:23;;;;;;;7.28;2.90;;;15.70;99.90;;;;;;5034747;28;20628;-92
2023/07/27 07:13:51;;;;;;;4.47;2.65;;;15.70;99.90;;;;;;5035558;28;20182;-90
2023/07/27 07:16:18;;;;;;;5.30;2.58;;;15.80;99.90;;;;;;5036181;28;20210;-89
2023/07/27 07:18:44;;;;;;;7.00;2.78;;;15.80;99.90;;;;;;5035492;28;20230;-91
2023/07/27 07:21:10;;;;;;;7.07;2.92;;;15.90;99.90;;;;;;5035273;28;20174;-91
2023/07/27 07:23:38;;;;;;;5.63;2.70;;;16.00;99.90;;;;;;5017108;28;20207;-90
2023/07/27 07:26:03;;;;;;;4.22;2.72;;;16.00;99.90;;;;;;5015623;28;20179;-91
2023/07/27 07:28:29;;;;;;;3.92;2.47;;;16.10;99.90;;;;;;5015534;28;20179;-92
2023/07/27 07:30:55;;;;;;;4.72;2.60;;;16.10;99.90;;;;;;5015476;28;20243;-89
2023/07/27 07:33:26;;;;;;;8.35;2.63;;;16.20;99.90;;;;;;5014866;28;20191;-92
2023/07/27 07:35:52;;;;;;;3.03;2.13;;;16.20;99.90;;;;;;5015149;28;20203;-90
2023/07/27 07:38:19;;;;;;;5.15;2.65;;;16.20;99.90;;;;;;5015651;28;20203;-92
2023/07/27 07:40:46;;;;;;;4.35;2.47;;;16.20;99.90;;;;;;5015388;28;20183;-89
2023/07/27 07:43:14;;;;;;;3.55;2.25;;;16.20;99.90;;;;;;5015285;28;20286;-91
2023/07/27 07:45:39;;;;;;;4.30;2.47;;;16.20;99.90;;;;;;5015446;28;20247;-90
2023/07/27 07:48:05;;;;;;;5.57;2.10;;;16.30;99.90;;;;;;5015485;28;20277;-90
2023/07/27 07:50:36;;;;;;;5.82;2.40;;;16.30;99.90;;;;;;5015104;28;20587;-92
2023/07/27 07:53:03;;;;;;;4.18;2.30;;;16.40;99.90;;;;;;5028691;28;20240;-96
2023/07/27 07:55:28;;;;;;;4.60;2.13;;;16.40;99.90;;;;;;5034961;28;20218;-93
2023/07/27 07:57:54;;;;;;;3.78;2.42;;;16.40;99.90;;;;;;5034883;28;20672;-93
2023/07/27 08:00:20;;;;;;;3.17;2.03;;;16.40;99.90;;;;;;5034573;28;20182;-89
2023/07/27 08:02:46;;;;;;;4.00;2.10;;;16.40;99.90;;;;;;5034715;28;20198;-93
2023/07/27 08:05:12;;;;;;;4.35;2.42;;;16.40;99.90;;;;;;5034518;28;20225;-91
2023/07/27 08:07:37;;;;;;;4.45;2.60;;;16.40;99.90;;;;;;5034671;28;20225;-92
2023/07/27 08:10:04;;;;;;;3.33;2.40;;;16.40;99.90;;;;;;5034570;28;20682;-93
2023/07/27 08:12:35;;;;;;;4.88;2.30;;;16.30;99.90;;;;;;5034935;28;20178;-91
2023/07/27 08:15:01;;;;;;;3.03;2.03;;;16.30;99.90;;;;;;5034531;28;20209;-95
2023/07/27 08:17:30;;;;;;;5.75;2.33;;;16.30;99.90;;;;;;5034428;28;20178;-93
2023/07/27 08:19:56;;;;;;;4.45;2.15;;;16.30;99.90;;;;;;5033641;28;20296;-92
2023/07/27 08:22:21;;;;;;;5.50;2.10;;;16.30;99.90;;;;;;5033923;28;20198;-93
2023/07/27 08:24:47;;;;;;;4.00;2.63;;;16.30;99.90;;;;;;5035090;28;20170;-93
2023/07/27 08:27:13;;;;;;;3.85;2.40;;;16.30;99.90;;;;;;5034119;28;20189;-95
2023/07/27 08:29:39;;;;;;;3.17;2.20;;;16.30;99.90;;;;;;5033859;28;20176;-91
2023/07/27 08:32:05;;;;;;;5.15;2.20;;;16.20;99.90;;;;;;5034240;28;20229;-93
2023/07/27 08:34:39;;;;;;;4.07;2.30;;;16.30;99.90;;;;;;5034161;28;20202;-94
2023/07/27 08:37:05;;;;;;;3.63;2.13;;;16.30;99.90;;;;;;5034839;28;20178;-95
2023/07/27 08:39:30;;;;;;;4.05;2.55;;;16.30;99.90;;;;;;5035094;28;20178;-94
2023/07/27 08:41:56;;;;;;;3.72;2.35;;;16.40;99.90;;;;;;5034433;28;20503;-93
2023/07/27 08:44:23;;;;;;;3.03;2.28;;;16.40;99.90;;;;;;5033869;28;20236;-93
2023/07/27 08:46:49;;;;;;;4.03;2.00;;;16.40;99.90;;;;;;5034493;28;20182;-94
2023/07/27 08:49:15;;;;;;;4.00;2.55;;;16.40;99.90;;;;;;5033997;28;20178;-93
2023/07/27 08:51:46;;;;;;;4.43;2.20;;;16.40;99.90;;;;;;5034022;28;20209;-94
2023/07/27 08:54:12;;;;;;;3.10;2.20;;;16.40;99.90;;;;;;5034236;28;20620;-95
2023/07/27 08:56:37;;;;;;;4.03;2.50;;;16.50;99.90;;;;;;5035212;28;20257;-95
2023/07/27 08:59:03;;;;;;;4.45;2.40;;;16.50;99.90;;;;;;5034527;28;20182;-92
2023/07/27 09:01:29;;;;;;;4.75;2.38;;;16.50;99.90;;;;;;5035759;28;20182;-95
2023/07/27 09:04:02;;;;;;;5.13;2.80;;;16.60;99.90;;;;;;5035582;28;20179;-92
2023/07/27 09:06:45;;;;;;;3.22;2.53;;;16.60;99.90;;;;;;5035004;28;20617;-94
2023/07/27 09:09:23;;;;;;;5.82;3.05;;;16.50;99.90;;;;;;5034475;28;20210;-91
2023/07/27 09:11:49;;;;;;;6.18;2.97;;;16.50;99.90;;;;;;5035084;28;20179;-95
2023/07/27 09:14:23;;;;;;;4.53;2.92;;;16.60;99.90;;;;;;5035258;28;20519;-94
2023/07/27 09:16:50;;;;;;;5.80;3.00;;;16.50;99.90;;;;;;5034963;28;20178;-92
2023/07/27 09:19:20;;;;;;;6.15;3.22;;;16.60;99.90;;;;;;5034129;28;20222;-91
2023/07/27 09:21:52;;;;;;;5.55;3.20;;;16.50;99.90;;;;;;5033819;28;20178;-94
2023/07/27 09:24:18;;;;;;;5.95;2.50;;;16.60;99.90;;;;;;5034503;28;20632;-95
2023/07/27 09:26:49;;;;;;;7.05;2.63;;;16.50;99.90;;;;;;5034460;28;20187;-92
2023/07/27 09:29:20;;;;;;;3.65;2.45;;;16.60;99.90;;;;;;5034808;28;20179;-91
2023/07/27 09:31:50;;;;;;;3.50;2.47;;;16.70;99.90;;;;;;5034978;28;20182;-92
2023/07/27 09:34:19;;;;;;;3.97;2.70;;;16.90;99.90;;;;;;5035350;28;20181;-95
2023/07/27 09:36:45;;;;;;;3.17;2.15;;;16.90;99.90;;;;;;5034481;28;20179;-95
2023/07/27 09:39:13;;;;;;;4.13;2.88;;;17.00;99.90;;;;;;5035068;28;20561;-92
2023/07/27 09:41:44;;;;;;;4.18;2.38;;;17.00;99.90;;;;;;5034492;28;20182;-92
2023/07/27 09:44:18;;;;;;;4.68;2.22;;;17.00;99.90;;;;;;5035023;28;20163;-93
2023/07/27 09:46:47;;;;;;;4.25;2.50;;;17.00;99.90;;;;;;5033814;28;20185;-92
2023/07/27 09:49:17;;;;;;;4.32;2.08;;;17.00;99.90;;;;;;5033572;28;20270;-92
2023/07/27 09:51:44;;;;;;;3.35;2.25;;;17.10;99.90;;;;;;5033618;28;20214;-94
2023/07/27 09:54:12;;;;;;;4.32;2.33;;;17.20;99.90;;;;;;5033600;28;20175;-93
2023/07/27 09:56:38;;;;;;;3.75;2.50;;;17.10;99.90;;;;;;5036946;28;20209;-92
2023/07/27 09:59:05;;;;;;;4.35;2.60;;;17.10;99.90;;;;;;5037102;28;20181;-90
2023/07/27 10:01:32;;;;;;;3.22;2.38;;;17.10;99.90;;;;;;5037163;28;20194;-92
2023/07/27 10:04:09;;;;;;;5.47;2.30;;;17.10;99.90;;;;;;5036955;28;20337;-92
2023/07/27 10:06:35;;;;;;;3.67;2.20;;;17.10;99.90;;;;;;5036684;28;20174;-91
2023/07/27 10:09:00;;;;;;;4.63;1.95;;;17.10;99.90;;;;;;5036638;28;20233;-92
2023/07/27 10:11:50;;;;;;;3.78;2.30;;;17.10;99.90;;;;;;5036655;28;20233;-91
2023/07/27 10:14:28;;;;;;;6.20;2.25;;;17.10;99.90;;;;;;5036416;28;20628;-93
2023/07/27 10:17:08;;;;;;;3.38;2.53;;;17.10;99.90;;;;;;5036373;28;20205;-91
2023/07/27 10:19:45;;;;;;;3.30;2.10;;;17.20;99.90;;;;;;5036402;28;20228;-91
2023/07/27 10:22:19;;;;;;;5.47;1.95;;;17.20;99.90;;;;;;5036562;28;20256;-91
2023/07/27 10:24:54;;;;;;;3.03;2.35;;;17.20;99.90;;;;;;5033977;28;20617;-91
2023/07/27 10:27:21;;;;;;;4.22;2.38;;;17.20;99.90;;;;;;5036612;28;20181;-93
2023/07/27 10:30:12;;;;;;;3.38;2.17;;;17.30;99.90;;;;;;5036323;28;20178;-93
2023/07/27 10:32:38;;;;;;;3.70;2.22;;;17.30;99.90;;;;;;5036621;28;20178;-92
2023/07/27 10:35:08;;;;;;;4.50;2.67;;;17.30;99.90;;;;;;5036583;28;20260;-92
2023/07/27 10:37:53;;;;;;;2.90;2.25;;;17.20;99.90;;;;;;5036509;28;20177;-93
2023/07/27 10:40:29;;;;;;;2.97;2.15;;;17.20;99.90;;;;;;5054392;28;20196;-90
2023/07/27 10:42:58;;;;;;;3.17;1.98;;;17.10;99.90;;;;;;5055968;28;20223;-90
2023/07/27 10:45:34;;;;;;;3.58;2.00;;;17.10;99.90;;;;;;5056175;28;20526;-90
2023/07/27 10:48:00;;;;;;;2.65;1.77;;;17.20;99.90;;;;;;5056219;28;20197;-92
2023/07/27 10:50:25;;;;;;;3.13;1.90;;;17.30;99.90;;;;;;5055829;28;20220;-90
2023/07/27 10:52:53;;;;;;;3.50;1.90;;;17.30;99.90;;;;;;5056159;28;20216;-94
2023/07/27 10:55:20;;;;;;;3.70;2.03;;;17.40;99.90;;;;;;5055742;28;20221;-92
2023/07/27 10:57:47;;;;;;;6.05;2.13;;;17.40;99.90;;;;;;5056107;28;20256;-91
2023/07/27 11:00:13;;;;;;;2.97;2.08;;;17.30;99.90;;;;;;5055563;28;20182;-92
2023/07/27 11:02:42;;;;;;;4.78;2.45;;;17.20;99.90;;;;;;5055767;28;20182;-89
2023/07/27 11:05:09;;;;;;;2.42;2.03;;;17.10;99.90;;;;;;5055389;28;20519;-93
2023/07/27 11:07:42;;;;;;;3.75;2.17;;;17.00;99.90;;;;;;5055395;28;20200;-92
2023/07/27 11:10:10;;;;;;;3.33;2.08;;;16.80;99.90;;;;;;5039447;28;20186;-93
2023/07/27 11:12:53;;;;;;;3.42;2.17;;;16.70;99.90;;;;;;5035728;28;20320;-91
2023/07/27 11:15:25;;;;;;;3.08;2.00;;;16.60;99.90;;;;;;5035476;28;20213;-91
2023/07/27 11:17:53;;;;;;;3.47;2.30;;;16.60;99.90;;;;;;5035595;28;20531;-92
2023/07/27 11:20:21;;;;;;;4.10;2.30;;;16.40;99.90;;;;;;5035537;28;20189;-91
2023/07/27 11:22:48;;;;;;;4.28;2.40;;;16.30;99.90;;;;;;5035511;28;20178;-90
2023/07/27 11:25:14;;;;;;;4.55;2.28;;;16.30;99.90;;;;;;5035362;28;20192;-91
2023/07/27 11:27:40;;;;;;;3.95;2.70;;;16.30;99.90;;;;;;5036412;28;20167;-90
2023/07/27 11:30:09;;;;;;;4.15;2.55;;;16.20;99.90;;;;;;5035193;28;20178;-90
2023/07/27 11:32:35;;;;;;;4.93;2.90;;;16.20;99.90;;;;;;5035253;28;20609;-88
2023/07/27 11:35:01;;;;;;;4.57;3.03;;;16.30;99.90;;;;;;5035787;28;20209;-89
2023/07/27 11:37:30;;;;;;;4.25;2.88;;;16.20;99.90;;;;;;5035329;28;20175;-89
2023/07/27 11:39:56;;;;;;;4.28;2.58;;;16.20;99.90;;;;;;5035272;28;20269;-90
2023/07/27 11:42:29;;;;;;;3.90;2.67;;;16.30;99.90;;;;;;5034980;28;20189;-89
2023/07/27 11:45:11;;;;;;;4.20;2.90;;;16.30;99.90;;;;;;5035181;28;20170;-90
2023/07/27 11:47:38;;;;;;;5.25;3.22;;;16.40;99.90;;;;;;5035069;28;20265;-88
2023/07/27 11:50:06;;;;;;;5.95;3.10;;;16.40;99.90;;;;;;5034876;28;20636;-87
2023/07/27 11:52:33;;;;;;;6.47;3.08;;;16.40;99.90;;;;;;5034818;28;20186;-90
2023/07/27 11:55:05;;;;;;;6.93;3.15;;;16.40;99.90;;;;;;5034618;28;20206;-90
2023/07/27 11:57:30;;;;;;;4.50;3.30;;;16.40;99.90;;;;;;5034947;28;20181;-89
2023/07/27 12:00:13;;;;;;;6.85;3.20;;;16.40;99.90;;;;;;5035816;28;20543;-91
2023/07/27 12:02:49;;;;;;;5.40;3.20;;;16.40;99.90;;;;;;5034743;28;20170;-90
2023/07/27 12:05:23;;;;;;;5.47;2.83;;;16.40;99.90;;;;;;5034370;28;20186;-88
2023/07/27 12:07:52;;;;;;;4.00;3.10;;;16.30;99.90;;;;;;5034550;28;20171;-92
2023/07/27 12:10:19;;;;;;;5.45;3.28;;;16.40;99.90;;;;;;5035067;28;20237;-90
2023/07/27 12:13:05;;;;;;;5.10;3.20;;;16.30;99.90;;;;;;5034754;28;20671;-89
2023/07/27 12:15:34;;;;;;;4.22;3.50;;;16.30;99.90;;;;;;5034792;28;20210;-91
2023/07/27 12:18:02;;;;;;;5.25;3.42;;;16.30;99.90;;;;;;5034042;28;20221;-89
2023/07/27 12:20:29;;;;;;;8.63;4.30;;;16.40;99.90;;;;;;5035190;28;20182;-91
2023/07/27 12:22:57;;;;;;;5.07;3.75;;;16.40;99.90;;;;;;5035004;28;20261;-90
2023/07/27 12:25:24;;;;;;;4.53;3.80;;;16.40;99.90;;;;;;5034370;28;20182;-91
2023/07/27 12:27:50;;;;;;;6.00;3.83;;;16.40;99.90;;;;;;5034545;28;20181;-92
2023/07/27 12:30:15;;;;;;;5.07;3.80;;;16.40;99.90;;;;;;5035417;28;20270;-89
2023/07/27 12:32:41;;;;;;;5.85;4.10;;;16.40;99.90;;;;;;5035059;28;20247;-93
2023/07/27 12:35:07;;;;;;;6.20;4.13;;;16.50;99.90;;;;;;5034059;28;20206;-90
2023/07/27 12:37:39;;;;;;;4.38;3.83;;;16.50;99.90;;;;;;5033536;28;20183;-89
2023/07/27 12:40:06;;;;;;;4.82;3.75;;;16.50;99.90;;;;;;5033511;28;20193;-91
2023/07/27 12:42:31;;;;;;;5.18;3.67;;;16.50;99.90;;;;;;5034241;28;20178;-92
2023/07/27 12:44:57;;;;;;;5.75;4.25;;;16.40;99.90;;;;;;5034463;28;20269;-91
2023/07/27 12:47:25;;;;;;;3.92;3.53;;;16.40;99.90;;;;;;5034503;28;20209;-93
2023/07/27 12:49:50;;;;;;;6.68;4.00;;;16.40;99.90;;;;;;5034553;28;20194;-89
2023/07/27 12:52:16;;;;;;;5.45;3.40;;;16.50;99.90;;;;;;5034236;28;20185;-89
2023/07/27 12:54:42;;;;;;;5.40;3.55;;;16.50;99.90;;;;;;5034382;28;20247;-95